Time;durP1;ratioP1;P1;durP2;ratioP2;P2;SDS_P1;SDS_P2;PMS_P1;PMS_P2;Temp;Humidity;BMP_temperature;BMP_pressure;BME280_temperature;BME280_humidity;BME280_pressure;Samples;Min_cycle;Max_cycle;Signal;HPM_P1;HPM_P2
2023/07/19 00:00:36;;;;;;;5.72;4.05;;;;;;;25.32;45.23;95154.22;5086601;28;20447;-80
2023/07/19 00:03:02;;;;;;;5.10;4.15;;;;;;;25.36;45.48;95142.66;5086607;28;20028;-81
2023/07/19 00:05:28;;;;;;;4.15;3.72;;;;;;;25.35;45.56;95158.03;5086508;28;20028;-82
2023/07/19 00:07:53;;;;;;;6.15;3.90;;;;;;;25.33;45.62;95152.16;5085664;28;20031;-81
2023/07/19 00:10:18;;;;;;;6.60;4.30;;;;;;;25.34;45.58;95150.88;5069058;28;20020;-81
2023/07/19 00:12:44;;;;;;;6.38;4.20;;;;;;;25.30;45.83;95145.56;5087054;28;20055;-81
2023/07/19 00:15:09;;;;;;;6.50;3.83;;;;;;;25.30;45.99;95134.31;5085170;28;20028;-80
2023/07/19 00:17:35;;;;;;;4.28;3.50;;;;;;;25.32;46.21;95140.16;5086087;28;20297;-81
2023/07/19 00:20:00;;;;;;;5.80;4.10;;;;;;;25.29;46.46;95137.63;5086433;28;20024;-81
2023/07/19 00:22:25;;;;;;;7.30;4.07;;;;;;;25.29;46.51;95146.84;5087840;28;20108;-81
2023/07/19 00:24:51;;;;;;;4.90;3.97;;;;;;;25.27;46.55;95140.97;5086204;28;20106;-81
2023/07/19 00:27:16;;;;;;;9.38;4.45;;;;;;;25.26;46.83;95147.91;5087327;28;20112;-81
2023/07/19 00:29:41;;;;;;;4.53;3.47;;;;;;;25.24;46.90;95149.72;5086540;28;20452;-81
2023/07/19 00:32:08;;;;;;;5.55;3.97;;;;;;;25.24;46.70;95142.03;5086405;28;20030;-81
2023/07/19 00:34:34;;;;;;;6.93;3.83;;;;;;;25.20;47.25;95141.56;5087029;28;20547;-81
2023/07/19 00:37:00;;;;;;;5.97;4.13;;;;;;;25.20;47.44;95149.25;5086308;28;20027;-81
2023/07/19 00:39:25;;;;;;;6.75;4.80;;;;;;;25.13;47.43;95142.16;5087473;28;20471;-82
2023/07/19 00:41:50;;;;;;;7.75;4.55;;;;;;;25.12;47.31;95149.09;5085730;28;20098;-82
2023/07/19 00:44:16;;;;;;;6.30;4.30;;;;;;;25.08;47.69;95140.94;5087175;28;20020;-81
2023/07/19 00:46:41;;;;;;;8.20;4.75;;;;;;;24.99;47.54;95144.06;5085105;28;20027;-82
2023/07/19 00:49:08;;;;;;;7.88;4.50;;;;;;;24.98;47.89;95142.56;5086743;28;20104;-82
2023/07/19 00:51:34;;;;;;;7.18;4.82;;;;;;;24.97;47.86;95148.72;5086816;28;20028;-82
2023/07/19 00:53:59;;;;;;;6.78;4.75;;;;;;;24.95;48.00;95149.25;5084684;28;20020;-82
2023/07/19 00:56:25;;;;;;;4.68;4.13;;;;;;;24.94;48.13;95142.06;5085999;28;20099;-82
2023/07/19 00:58:51;;;;;;;6.78;4.55;;;;;;;24.85;48.23;95148.06;5086138;28;20024;-83
2023/07/19 01:01:16;;;;;;;5.85;4.53;;;;;;;24.80;48.43;95149.63;5087638;28;20070;-83
2023/07/19 01:03:42;;;;;;;7.22;5.00;;;;;;;24.75;48.69;95144.06;5084317;28;20035;-82
2023/07/19 01:06:08;;;;;;;6.10;4.35;;;;;;;24.71;48.95;95147.16;5085747;28;20558;-81
2023/07/19 01:08:33;;;;;;;6.28;4.38;;;;;;;24.68;48.98;95145.41;5086652;28;20032;-81
2023/07/19 01:11:00;;;;;;;6.15;4.57;;;;;;;24.67;49.04;95143.13;5084895;28;20494;-82
2023/07/19 01:13:25;;;;;;;5.85;4.38;;;;;;;24.63;49.45;95144.16;5086917;28;20028;-82
2023/07/19 01:15:51;;;;;;;6.35;3.97;;;;;;;24.59;49.26;95140.13;5085376;28;20081;-82
2023/07/19 01:18:18;;;;;;;7.10;4.80;;;;;;;24.57;49.12;95132.22;5087169;28;20039;-82
2023/07/19 01:20:44;;;;;;;7.35;4.63;;;;;;;24.52;49.37;95132.28;5067226;28;20487;-82
2023/07/19 01:23:09;;;;;;;5.20;4.03;;;;;;;24.51;49.68;95134.31;5085675;28;20038;-82
2023/07/19 01:25:34;;;;;;;6.07;4.22;;;;;;;24.47;49.72;95141.50;5085980;28;20521;-82
2023/07/19 01:28:00;;;;;;;6.55;4.47;;;;;;;24.42;49.42;95143.06;5084754;28;20479;-82
2023/07/19 01:30:25;;;;;;;6.47;4.25;;;;;;;24.34;49.54;95131.66;5086563;28;20024;-82
2023/07/19 01:32:51;;;;;;;8.10;4.78;;;;;;;24.31;49.47;95134.72;5085189;28;20024;-81
2023/07/19 01:35:17;;;;;;;5.38;4.18;;;;;;;24.27;49.90;95131.44;5085714;28;20017;-83
2023/07/19 01:37:42;;;;;;;6.22;4.55;;;;;;;24.23;49.86;95131.72;5084925;28;20486;-81
2023/07/19 01:40:11;;;;;;;5.57;4.65;;;;;;;24.20;49.78;95127.16;5086906;28;20098;-82
2023/07/19 01:42:36;;;;;;;8.20;4.30;;;;;;;24.18;50.09;95137.38;5085310;28;20024;-81
2023/07/19 01:45:02;;;;;;;4.90;4.22;;;;;;;24.17;49.94;95133.81;5086471;28;20024;-81
2023/07/19 01:47:27;;;;;;;7.47;4.75;;;;;;;24.11;49.64;95133.09;5084928;28;20032;-82
2023/07/19 01:49:53;;;;;;;8.05;4.40;;;;;;;24.07;50.04;95133.38;5085494;28;20019;-81
2023/07/19 01:52:19;;;;;;;6.97;4.35;;;;;;;24.03;49.95;95135.72;5085299;28;20047;-81
2023/07/19 01:54:44;;;;;;;4.70;3.92;;;;;;;24.01;49.83;95126.25;5083619;28;20022;-83
2023/07/19 01:57:11;;;;;;;10.05;4.65;;;;;;;24.02;49.86;95131.34;5086163;28;20048;-82
2023/07/19 01:59:37;;;;;;;5.85;4.13;;;;;;;24.01;50.20;95135.44;5083898;28;20413;-81
2023/07/19 02:02:03;;;;;;;6.70;4.30;;;;;;;23.99;50.27;95140.84;5089639;28;20020;-82
2023/07/19 02:04:29;;;;;;;5.45;4.18;;;;;;;23.96;50.31;95135.47;5086300;28;20012;-81
2023/07/19 02:06:55;;;;;;;6.45;3.97;;;;;;;23.90;50.61;95134.75;5084356;28;20470;-81
2023/07/19 02:09:21;;;;;;;5.00;4.22;;;;;;;23.80;50.70;95125.91;5086391;28;20035;-81
2023/07/19 02:11:46;;;;;;;5.63;3.88;;;;;;;23.72;51.07;95114.47;5086371;28;20456;-82
2023/07/19 02:14:12;;;;;;;7.95;4.50;;;;;;;23.74;51.65;95106.31;5089009;28;20073;-81
2023/07/19 02:16:38;;;;;;;7.00;4.50;;;;;;;23.75;51.23;95109.88;5069859;28;20056;-83
2023/07/19 02:19:05;;;;;;;4.97;4.47;;;;;;;23.69;51.25;95097.91;5090081;28;20513;-81
2023/07/19 02:21:31;;;;;;;6.50;4.70;;;;;;;23.69;51.15;95095.88;5087520;28;20103;-82
2023/07/19 02:23:57;;;;;;;8.13;5.28;;;;;;;23.63;50.94;95097.94;5089570;28;20157;-81
2023/07/19 02:26:23;;;;;;;6.63;4.70;;;;;;;23.55;51.12;95094.88;5088194;28;20020;-81
2023/07/19 02:28:48;;;;;;;6.22;4.88;;;;;;;23.54;51.27;95095.41;5088702;28;20016;-82
2023/07/19 02:31:14;;;;;;;6.70;4.43;;;;;;;23.46;51.51;95097.25;5088513;28;20522;-82
2023/07/19 02:33:39;;;;;;;7.05;4.60;;;;;;;23.44;51.51;95106.16;5087971;28;20073;-81
2023/07/19 02:36:05;;;;;;;8.50;5.03;;;;;;;23.40;51.74;95102.91;5090007;28;20494;-81
2023/07/19 02:38:30;;;;;;;8.98;4.78;;;;;;;23.37;52.13;95092.69;5088785;28;20080;-81
2023/07/19 02:41:00;;;;;;;5.80;4.75;;;;;;;23.34;52.24;95099.34;5088082;28;20032;-82
2023/07/19 02:43:26;;;;;;;6.70;4.70;;;;;;;23.33;51.93;95095.00;5087762;28;20024;-81
2023/07/19 02:45:52;;;;;;;7.03;4.90;;;;;;;23.31;52.26;95095.53;5087274;28;20830;-81
2023/07/19 02:48:18;;;;;;;5.80;4.70;;;;;;;23.31;52.10;95103.19;5088146;28;20024;-81
2023/07/19 02:50:47;;;;;;;8.93;4.90;;;;;;;23.26;52.07;95098.34;5088319;28;20122;-82
2023/07/19 02:53:12;;;;;;;6.75;4.70;;;;;;;23.26;52.19;95104.72;5090024;28;20032;-82
2023/07/19 02:55:38;;;;;;;9.25;5.13;;;;;;;23.27;51.99;95105.50;5086351;28;20024;-82
2023/07/19 02:58:04;;;;;;;7.40;4.88;;;;;;;23.27;51.97;95102.69;5089514;28;20033;-82
2023/07/19 03:00:29;;;;;;;6.18;4.13;;;;;;;23.25;52.07;95099.66;5088439;28;20028;-82
2023/07/19 03:02:55;;;;;;;7.78;5.00;;;;;;;23.28;51.90;95102.19;5088353;28;20019;-82
2023/07/19 03:05:21;;;;;;;7.65;5.00;;;;;;;23.25;51.92;95103.22;5092647;28;20020;-82
2023/07/19 03:07:47;;;;;;;7.28;5.13;;;;;;;23.21;51.96;95101.94;5088295;28;20020;-82
2023/07/19 03:10:12;;;;;;;9.30;4.70;;;;;;;23.21;51.44;95099.16;5089407;28;20406;-82
2023/07/19 03:12:38;;;;;;;9.27;5.00;;;;;;;23.18;51.28;95105.81;5087463;28;20072;-82
2023/07/19 03:15:04;;;;;;;9.77;5.10;;;;;;;23.16;51.17;95100.69;5089287;28;20107;-82
2023/07/19 03:17:29;;;;;;;9.23;4.82;;;;;;;23.11;51.16;95098.69;5087435;28;20055;-81
2023/07/19 03:19:54;;;;;;;7.63;4.90;;;;;;;23.11;50.84;95098.69;5088481;28;20024;-81
2023/07/19 03:22:20;;;;;;;9.25;5.50;;;;;;;23.09;51.14;95100.47;5086507;28;20557;-81
2023/07/19 03:24:45;;;;;;;9.48;5.60;;;;;;;23.00;51.00;95090.31;5087576;28;20115;-81
2023/07/19 03:27:11;;;;;;;10.57;4.72;;;;;;;23.02;50.98;95096.16;5088966;28;20032;-80
2023/07/19 03:29:36;;;;;;;9.88;5.47;;;;;;;23.01;51.06;95089.81;5087036;28;20089;-80
2023/07/19 03:32:02;;;;;;;7.82;4.78;;;;;;;23.17;50.68;95087.44;5088956;28;20063;-81
2023/07/19 03:34:27;;;;;;;8.05;4.78;;;;;;;23.27;50.26;95081.00;5085593;28;20551;-81
2023/07/19 03:36:53;;;;;;;9.25;4.72;;;;;;;23.23;50.28;95072.13;5088342;28;20115;-82
2023/07/19 03:39:18;;;;;;;8.25;4.93;;;;;;;23.11;50.72;95067.06;5088709;28;20111;-81
2023/07/19 03:41:44;;;;;;;7.15;4.95;;;;;;;23.08;50.72;95071.69;5087740;28;20030;-81
2023/07/19 03:44:09;;;;;;;8.82;5.45;;;;;;;23.03;51.39;95076.03;5088312;28;20455;-87
2023/07/19 03:46:35;;;;;;;8.07;5.15;;;;;;;23.02;51.62;95063.28;5088231;28;20032;-88
2023/07/19 03:49:01;;;;;;;10.10;5.25;;;;;;;23.04;51.32;95054.34;5088796;28;20051;-88
2023/07/19 03:51:26;;;;;;;9.80;5.82;;;;;;;23.01;51.46;95061.78;5087745;28;20057;-89
2023/07/19 03:53:51;;;;;;;10.02;5.50;;;;;;;23.03;51.90;95052.84;5087657;28;20036;-89
2023/07/19 03:56:17;;;;;;;8.30;5.28;;;;;;;23.02;51.69;95048.50;5087623;28;20024;-88
2023/07/19 03:58:45;;;;;;;15.73;6.18;;;;;;;23.00;52.36;95060.25;5087752;28;20110;-89
2023/07/19 04:01:10;;;;;;;10.73;5.80;;;;;;;23.00;52.25;95057.44;5088422;28;20045;-88
2023/07/19 04:03:36;;;;;;;12.63;5.35;;;;;;;22.99;52.63;95069.91;5069458;28;20032;-88
2023/07/19 04:06:01;;;;;;;10.10;5.82;;;;;;;23.08;52.42;95073.72;5089390;28;20501;-90
2023/07/19 04:08:27;;;;;;;13.23;6.97;;;;;;;23.07;52.53;95077.81;5091871;28;20028;-86
2023/07/19 04:10:52;;;;;;;12.70;5.93;;;;;;;23.07;52.82;95061.00;5087253;28;20032;-81
2023/07/19 04:13:18;;;;;;;9.63;5.32;;;;;;;23.05;53.09;95067.88;5084622;28;20470;-82
2023/07/19 04:15:43;;;;;;;10.73;5.78;;;;;;;23.09;53.03;95058.41;5086232;28;20051;-82
2023/07/19 04:18:09;;;;;;;11.05;5.93;;;;;;;23.11;53.01;95058.66;5085323;28;20062;-82
2023/07/19 04:20:36;;;;;;;11.60;6.13;;;;;;;23.11;53.11;95059.44;5086841;28;20031;-82
2023/07/19 04:23:02;;;;;;;9.52;5.35;;;;;;;23.10;53.08;95054.34;5087701;28;20039;-82
2023/07/19 04:25:28;;;;;;;11.35;6.18;;;;;;;23.15;52.95;95064.75;5086477;28;20020;-83
2023/07/19 04:27:53;;;;;;;9.50;5.90;;;;;;;23.16;53.09;95060.66;5087511;28;20077;-81
2023/07/19 04:30:19;;;;;;;10.90;5.70;;;;;;;23.19;53.28;95060.41;5087235;28;20027;-81
2023/07/19 04:32:45;;;;;;;9.65;6.13;;;;;;;23.24;52.82;95058.88;5086012;28;20432;-81
2023/07/19 04:35:10;;;;;;;10.07;5.20;;;;;;;23.27;52.67;95063.41;5083988;28;20414;-81
2023/07/19 04:37:38;;;;;;;9.32;5.68;;;;;;;23.28;52.60;95057.31;5085590;28;20035;-78
2023/07/19 04:40:06;;;;;;;8.80;5.65;;;;;;;23.33;52.36;95058.53;5085438;28;20024;-79
2023/07/19 04:42:31;;;;;;;10.90;6.00;;;;;;;23.36;52.39;95059.56;5084519;28;20031;-79
2023/07/19 04:44:56;;;;;;;13.50;6.82;;;;;;;23.36;52.34;95062.38;5085938;28;20063;-81
2023/07/19 04:47:22;;;;;;;13.32;6.68;;;;;;;23.35;52.01;95061.59;5086315;28;20020;-80
2023/07/19 04:49:47;;;;;;;13.65;7.22;;;;;;;23.39;51.97;95059.28;5087172;28;20028;-80
2023/07/19 04:52:13;;;;;;;11.50;6.63;;;;;;;23.41;51.49;95062.34;5085832;28;20037;-79
2023/07/19 04:54:38;;;;;;;9.98;6.63;;;;;;;23.40;51.76;95065.63;5086788;28;20093;-79
2023/07/19 04:57:05;;;;;;;13.63;6.88;;;;;;;23.41;51.76;95064.38;5086148;28;20028;-80
2023/07/19 04:59:30;;;;;;;16.27;7.20;;;;;;;23.42;51.26;95068.72;5086230;28;20103;-80
2023/07/19 05:01:56;;;;;;;12.77;7.20;;;;;;;23.48;51.44;95075.81;5086715;28;20526;-80
2023/07/19 05:04:21;;;;;;;11.27;7.10;;;;;;;23.47;51.52;95071.47;5085698;28;20472;-80
2023/07/19 05:06:47;;;;;;;14.68;7.22;;;;;;;23.49;51.30;95068.91;5086693;28;20080;-80
2023/07/19 05:09:12;;;;;;;10.50;6.95;;;;;;;23.48;51.11;95077.84;5084019;28;20020;-80
2023/07/19 05:11:39;;;;;;;8.68;6.70;;;;;;;23.52;51.11;95067.13;5086784;28;20107;-79
2023/07/19 05:14:05;;;;;;;9.95;7.38;;;;;;;23.56;51.16;95064.78;5067703;28;20513;-77
2023/07/19 05:16:30;;;;;;;10.05;6.80;;;;;;;23.62;51.15;95064.75;5084745;28;20048;-77
2023/07/19 05:18:56;;;;;;;11.95;7.85;;;;;;;23.63;50.81;95058.66;5086196;28;20474;-78
2023/07/19 05:21:21;;;;;;;12.23;7.28;;;;;;;23.63;50.92;95061.47;5085614;28;20440;-77
2023/07/19 05:23:46;;;;;;;8.38;6.40;;;;;;;23.63;51.34;95058.66;5086356;28;20035;-77
2023/07/19 05:26:12;;;;;;;12.27;6.93;;;;;;;23.68;51.58;95054.28;5085426;28;20825;-77
2023/07/19 05:28:37;;;;;;;13.07;6.82;;;;;;;23.71;51.50;95058.84;5085389;28;20025;-78
2023/07/19 05:31:03;;;;;;;11.60;6.72;;;;;;;23.71;51.40;95047.63;5085291;28;20024;-78
2023/07/19 05:33:30;;;;;;;15.88;7.88;;;;;;;23.75;51.60;95048.13;5086646;28;20448;-77
2023/07/19 05:35:55;;;;;;;8.95;6.72;;;;;;;23.78;51.08;95053.44;5085938;28;20051;-78
2023/07/19 05:38:21;;;;;;;11.88;8.18;;;;;;;23.90;51.31;95050.53;5086110;28;20486;-77
2023/07/19 05:40:47;;;;;;;12.38;8.27;;;;;;;23.89;51.38;95049.78;5086096;28;20051;-77
2023/07/19 05:43:13;;;;;;;11.60;7.78;;;;;;;23.88;51.33;95044.69;5084207;28;20063;-77
2023/07/19 05:45:38;;;;;;;11.88;6.90;;;;;;;23.92;51.50;95048.75;5086276;28;20164;-77
2023/07/19 05:48:03;;;;;;;11.90;7.25;;;;;;;23.95;51.71;95044.88;5089095;28;20355;-77
2023/07/19 05:50:29;;;;;;;15.55;8.43;;;;;;;24.00;51.35;95038.47;5089368;28;20039;-78
2023/07/19 05:52:54;;;;;;;14.25;8.20;;;;;;;24.07;51.43;95043.50;5089029;28;20020;-78
2023/07/19 05:55:20;;;;;;;11.77;7.38;;;;;;;24.10;51.48;95041.72;5089982;28;20024;-77
2023/07/19 05:57:45;;;;;;;14.50;7.85;;;;;;;24.19;51.55;95044.16;5088049;28;20035;-79
2023/07/19 06:00:19;;;;;;;13.18;7.20;;;;;;;24.27;51.44;95041.56;5092603;28;20020;-78
2023/07/19 06:02:45;;;;;;;13.07;7.60;;;;;;;24.35;51.29;95039.72;5109283;28;20031;-78
2023/07/19 06:05:12;;;;;;;12.07;7.90;;;;;;;24.46;51.61;95041.66;5094832;28;20016;-76
2023/07/19 06:07:38;;;;;;;15.73;8.25;;;;;;;24.50;51.19;95056.19;5101666;28;20043;-76
2023/07/19 06:10:05;;;;;;;11.82;8.18;;;;;;;24.53;51.30;95057.91;5107252;28;20023;-76
2023/07/19 06:12:30;;;;;;;10.65;7.78;;;;;;;24.64;50.89;95055.00;5108871;28;20034;-79
2023/07/19 06:14:55;;;;;;;18.75;8.20;;;;;;;24.71;50.74;95056.44;5107469;28;20032;-78
2023/07/19 06:17:21;;;;;;;12.45;7.18;;;;;;;24.72;50.36;95049.56;5107571;28;20512;-77
2023/07/19 06:19:46;;;;;;;17.02;8.48;;;;;;;24.85;49.59;95050.41;5089882;28;20043;-78
2023/07/19 06:22:12;;;;;;;12.10;7.03;;;;;;;24.88;49.65;95045.78;5107590;28;20110;-77
2023/07/19 06:24:37;;;;;;;11.75;8.10;;;;;;;24.99;49.54;95042.06;5099120;28;20065;-77
2023/07/19 06:27:03;;;;;;;11.52;7.47;;;;;;;24.98;49.74;95049.00;5093133;28;20389;-77
2023/07/19 06:29:28;;;;;;;11.20;7.50;;;;;;;25.09;49.69;95046.06;5099416;28;20035;-78
2023/07/19 06:31:53;;;;;;;13.30;7.60;;;;;;;25.09;49.66;95040.44;5089674;28;20028;-78
2023/07/19 06:34:19;;;;;;;13.18;7.10;;;;;;;25.14;48.68;95043.19;5095757;28;20470;-77
2023/07/19 06:36:44;;;;;;;11.23;6.65;;;;;;;25.21;48.82;95035.44;5104216;28;20031;-77
2023/07/19 06:39:10;;;;;;;10.80;6.82;;;;;;;25.26;48.79;95026.16;5096155;28;20020;-77
2023/07/19 06:41:35;;;;;;;13.05;7.53;;;;;;;25.37;48.66;95026.00;5095951;28;20032;-76
2023/07/19 06:44:00;;;;;;;10.18;7.95;;;;;;;25.48;48.34;95031.50;5088825;28;20115;-76
2023/07/19 06:46:26;;;;;;;11.82;7.82;;;;;;;25.59;48.38;95033.38;5089601;28;20409;-85
2023/07/19 06:48:51;;;;;;;18.65;8.90;;;;;;;25.69;47.87;95040.13;5086634;28;20028;-83
2023/07/19 06:51:17;;;;;;;11.75;7.65;;;;;;;25.71;47.73;95031.16;5089737;28;20062;-86
2023/07/19 06:53:42;;;;;;;11.27;7.45;;;;;;;25.79;47.99;95037.72;5088510;28;20602;-87
2023/07/19 06:56:08;;;;;;;10.60;7.30;;;;;;;25.86;47.00;95037.88;5088250;28;20024;-86
2023/07/19 06:58:33;;;;;;;12.15;7.60;;;;;;;25.87;47.16;95030.16;5087196;28;20474;-86
2023/07/19 07:00:59;;;;;;;11.95;7.30;;;;;;;25.97;46.78;95039.72;5089681;28;20040;-87
2023/07/19 07:03:25;;;;;;;11.15;7.05;;;;;;;26.03;46.93;95040.38;5089779;28;20222;-87
2023/07/19 07:05:50;;;;;;;12.65;7.10;;;;;;;26.09;46.68;95037.47;5087576;28;20024;-87
2023/07/19 07:08:16;;;;;;;15.90;7.53;;;;;;;26.17;46.55;95041.19;5089388;28;20502;-86
2023/07/19 07:10:42;;;;;;;13.80;7.40;;;;;;;26.21;46.06;95027.56;5087875;28;20020;-86
2023/07/19 07:13:08;;;;;;;13.98;6.30;;;;;;;26.31;46.53;95041.97;5088526;28;20031;-87
2023/07/19 07:15:35;;;;;;;13.70;7.10;;;;;;;26.42;46.08;95033.34;5090024;28;20044;-87
2023/07/19 07:18:00;;;;;;;14.40;6.63;;;;;;;26.48;46.09;95034.75;5096655;28;20100;-86
2023/07/19 07:20:26;;;;;;;12.60;6.57;;;;;;;26.60;45.51;95035.31;5088752;28;20398;-86
2023/07/19 07:22:52;;;;;;;10.55;5.68;;;;;;;26.59;45.18;95030.97;5087157;28;20024;-86
2023/07/19 07:25:19;;;;;;;13.30;6.47;;;;;;;26.71;44.73;95035.09;5088958;28;20040;-86
2023/07/19 07:27:44;;;;;;;9.52;6.35;;;;;;;26.78;43.80;95030.88;5087177;28;20142;-86
2023/07/19 07:30:10;;;;;;;13.77;6.32;;;;;;;26.83;43.62;95018.72;5088392;28;20103;-85
2023/07/19 07:32:35;;;;;;;12.85;6.00;;;;;;;27.00;43.20;95024.03;5086285;28;20032;-85
2023/07/19 07:35:02;;;;;;;8.15;5.82;;;;;;;27.04;43.58;95021.66;5087764;28;20150;-86
2023/07/19 07:37:28;;;;;;;8.85;5.38;;;;;;;27.17;42.81;95026.53;5088120;28;20474;-86
2023/07/19 07:39:53;;;;;;;6.97;4.90;;;;;;;27.27;42.57;95013.50;5085683;28;20026;-86
2023/07/19 07:42:20;;;;;;;6.90;4.93;;;;;;;27.38;42.38;95010.44;5088663;28;20490;-87
2023/07/19 07:44:45;;;;;;;10.07;5.10;;;;;;;27.48;42.28;95010.72;5085245;28;20072;-80
2023/07/19 07:47:10;;;;;;;7.93;5.00;;;;;;;27.59;41.22;95004.84;5088494;28;20466;-86
2023/07/19 07:49:36;;;;;;;8.90;5.25;;;;;;;27.64;41.84;95003.94;5085824;28;20454;-85
2023/07/19 07:52:02;;;;;;;8.57;5.28;;;;;;;27.77;41.79;95000.34;5088011;28;20102;-84
2023/07/19 07:54:28;;;;;;;5.88;4.60;;;;;;;27.85;41.30;94992.69;5087638;28;20028;-86
2023/07/19 07:56:53;;;;;;;7.18;5.00;;;;;;;27.90;40.95;94986.13;5087285;28;20073;-85
2023/07/19 07:59:18;;;;;;;8.25;5.25;;;;;;;28.03;41.27;94990.94;5091885;28;20055;-86
2023/07/19 08:01:44;;;;;;;7.60;5.15;;;;;;;28.10;41.43;94990.28;5087804;28;20023;-87
2023/07/19 08:04:10;;;;;;;6.20;5.00;;;;;;;28.25;41.09;94996.03;5089817;28;20020;-85
2023/07/19 08:06:36;;;;;;;6.78;5.10;;;;;;;28.35;41.51;94990.69;5086695;28;20410;-87
2023/07/19 08:09:02;;;;;;;11.30;5.50;;;;;;;28.45;40.90;94993.78;5086088;28;20495;-85
2023/07/19 08:11:27;;;;;;;7.60;5.45;;;;;;;28.56;40.97;94980.09;5087475;28;20390;-86
2023/07/19 08:13:53;;;;;;;8.77;4.72;;;;;;;28.71;40.31;94981.47;5086551;28;20516;-86
2023/07/19 08:16:20;;;;;;;8.52;5.38;;;;;;;28.79;39.93;94983.06;5087454;28;20047;-85
2023/07/19 08:18:45;;;;;;;8.80;5.03;;;;;;;28.91;39.65;94977.09;5087787;28;20469;-86
2023/07/19 08:21:11;;;;;;;9.00;5.10;;;;;;;29.00;39.49;94985.06;5073158;28;20016;-86
2023/07/19 08:23:36;;;;;;;7.40;5.95;;;;;;;29.19;39.17;94985.53;5086300;28;20384;-87
2023/07/19 08:26:02;;;;;;;11.00;6.60;;;;;;;29.32;38.79;94978.97;5086395;28;20092;-86
2023/07/19 08:28:28;;;;;;;9.80;5.53;;;;;;;29.36;38.76;94982.97;5086820;28;20398;-87
2023/07/19 08:30:53;;;;;;;6.82;5.22;;;;;;;29.46;38.59;94979.56;5085716;28;20024;-85
2023/07/19 08:33:22;;;;;;;7.15;4.85;;;;;;;29.52;38.54;94980.16;5087061;28;20483;-87
2023/07/19 08:35:49;;;;;;;11.32;6.38;;;;;;;29.57;38.61;94985.66;5085998;28;20028;-86
2023/07/19 08:38:15;;;;;;;9.63;6.40;;;;;;;29.71;38.45;94979.88;5086131;28;20107;-86
2023/07/19 08:40:49;;;;;;;7.35;4.97;;;;;;;29.81;38.21;94972.31;5085729;28;20108;-86
2023/07/19 08:43:15;;;;;;;12.88;5.93;;;;;;;29.88;38.28;94971.59;5088304;28;20016;-86
2023/07/19 08:45:41;;;;;;;8.65;5.75;;;;;;;29.96;38.33;94963.06;5085653;28;20068;-83
2023/07/19 08:48:07;;;;;;;9.93;6.22;;;;;;;30.09;37.93;94955.13;5085341;28;20062;-83
2023/07/19 08:50:33;;;;;;;10.70;5.88;;;;;;;30.20;37.77;94956.88;5068573;28;20020;-82
2023/07/19 08:53:02;;;;;;;11.85;5.72;;;;;;;30.35;37.39;94950.44;5084678;28;20047;-84
2023/07/19 08:55:29;;;;;;;7.45;4.93;;;;;;;30.48;37.08;94947.38;5087043;28;20024;-85
2023/07/19 08:57:54;;;;;;;8.57;5.35;;;;;;;30.62;36.62;94933.72;5083736;28;20040;-83
2023/07/19 09:00:20;;;;;;;6.28;5.07;;;;;;;30.64;36.99;94945.28;5087425;28;20467;-84
2023/07/19 09:02:45;;;;;;;9.55;5.18;;;;;;;30.76;36.46;94935.06;5085872;28;20024;-83
2023/07/19 09:05:12;;;;;;;5.60;4.88;;;;;;;30.88;36.54;94932.56;5086642;28;20026;-83
2023/07/19 09:07:41;;;;;;;10.85;5.15;;;;;;;31.01;36.33;94940.06;5084991;28;20141;-83
2023/07/19 09:10:08;;;;;;;7.25;5.07;;;;;;;31.08;36.23;94937.22;5084429;28;20048;-84
2023/07/19 09:12:43;;;;;;;6.45;4.75;;;;;;;31.29;35.55;94939.78;5085424;28;20034;-83
2023/07/19 09:15:11;;;;;;;12.45;5.45;;;;;;;31.37;35.63;94937.69;5084286;28;20020;-84
2023/07/19 09:17:44;;;;;;;8.20;4.60;;;;;;;31.53;35.03;94937.56;5085615;28;20032;-86
2023/07/19 09:20:11;;;;;;;7.45;4.57;;;;;;;31.58;35.53;94940.19;5087379;28;20039;-86
2023/07/19 09:22:37;;;;;;;7.68;5.38;;;;;;;31.67;34.78;94936.75;5094889;28;20135;-87
2023/07/19 09:25:03;;;;;;;7.60;5.18;;;;;;;31.84;34.20;94933.25;5093500;28;20034;-87
2023/07/19 09:27:29;;;;;;;5.53;4.90;;;;;;;32.01;33.27;94929.69;5091160;28;20517;-86
2023/07/19 09:29:55;;;;;;;7.72;4.38;;;;;;;32.10;32.83;94922.59;5092135;28;20024;-87
2023/07/19 09:32:22;;;;;;;6.65;4.85;;;;;;;32.17;32.86;94921.78;5092871;28;20027;-86
2023/07/19 09:34:47;;;;;;;10.02;4.78;;;;;;;32.35;32.43;94923.38;5095208;28;20056;-86
2023/07/19 09:37:13;;;;;;;7.78;4.55;;;;;;;32.42;32.76;94919.69;5090931;28;20028;-86
2023/07/19 09:39:40;;;;;;;8.93;5.00;;;;;;;32.54;33.03;94919.19;5092963;28;20052;-87
2023/07/19 09:42:08;;;;;;;7.45;5.65;;;;;;;32.78;30.94;94916.25;5092786;28;20494;-87
2023/07/19 09:44:36;;;;;;;6.65;5.18;;;;;;;32.96;29.31;94919.88;5093041;28;20024;-86
2023/07/19 09:47:02;;;;;;;8.00;5.35;;;;;;;33.09;28.93;94923.72;5092294;28;20490;-85
2023/07/19 09:49:27;;;;;;;7.88;5.10;;;;;;;33.21;28.17;94919.78;5091123;28;20047;-84
2023/07/19 09:51:55;;;;;;;7.47;4.57;;;;;;;33.33;28.05;94917.16;5091995;28;20085;-88
2023/07/19 09:54:21;;;;;;;6.50;4.93;;;;;;;33.47;27.35;94909.75;5090587;28;20020;-87
2023/07/19 09:56:47;;;;;;;8.23;5.03;;;;;;;33.66;27.28;94897.69;5092308;28;20074;-85
2023/07/19 09:59:43;;;;;;;8.13;5.53;;;;;;;33.91;27.45;94900.38;5092530;28;20048;-84
2023/07/19 10:02:10;;;;;;;8.07;4.65;;;;;;;34.02;27.29;94893.38;5069010;28;20485;-86
2023/07/19 10:04:39;;;;;;;6.18;4.55;;;;;;;34.15;25.51;94900.78;5053811;28;20024;-87
2023/07/19 10:07:07;;;;;;;8.50;4.80;;;;;;;34.21;25.80;94887.72;5052309;28;20083;-87
2023/07/19 10:09:40;;;;;;;8.18;5.00;;;;;;;34.32;25.67;94884.28;5070442;28;20242;-86
2023/07/19 10:12:23;;;;;;;10.20;5.22;;;;;;;34.55;25.36;94889.59;5036074;28;20499;-86
2023/07/19 10:14:51;;;;;;;8.25;4.75;;;;;;;34.66;24.91;94887.50;5052460;28;20127;-85
2023/07/19 10:17:17;;;;;;;7.07;4.70;;;;;;;34.72;25.27;94882.25;5053401;28;20668;-85
2023/07/19 10:20:14;;;;;;;5.53;4.47;;;;;;;34.86;24.64;94886.91;5068499;28;20116;-86
2023/07/19 10:22:52;;;;;;;7.63;4.85;;;;;;;35.03;24.78;94877.44;5070961;28;20459;-88
2023/07/19 10:25:37;;;;;;;9.75;4.60;;;;;;;35.20;24.57;94872.91;5077746;28;20593;-85
2023/07/19 10:28:08;;;;;;;7.20;5.32;;;;;;;35.37;25.31;94875.59;5069436;28;20032;-85
2023/07/19 10:30:43;;;;;;;9.65;5.18;;;;;;;35.51;24.74;94873.78;5070742;28;20025;-85
2023/07/19 10:33:09;;;;;;;8.95;5.40;;;;;;;35.68;24.88;94872.81;5065113;28;20041;-87
2023/07/19 10:35:34;;;;;;;12.77;5.38;;;;;;;35.66;25.20;94858.38;5066924;28;20068;-85
2023/07/19 10:38:00;;;;;;;10.23;4.57;;;;;;;35.84;24.08;94871.09;5057485;28;20044;-86
2023/07/19 10:40:25;;;;;;;7.75;4.93;;;;;;;35.97;23.55;94871.97;5087638;28;20043;-86
2023/07/19 10:42:51;;;;;;;6.03;4.18;;;;;;;36.05;22.93;94863.94;5089695;28;20043;-85
2023/07/19 10:45:16;;;;;;;7.32;4.47;;;;;;;36.02;23.56;94871.66;5088606;28;20039;-86
2023/07/19 10:47:42;;;;;;;5.82;4.60;;;;;;;36.17;22.49;94867.63;5089612;28;20125;-85
2023/07/19 10:50:09;;;;;;;7.40;4.70;;;;;;;36.29;23.67;94856.28;5086566;28;20030;-85
2023/07/19 10:52:34;;;;;;;8.60;4.55;;;;;;;36.43;23.54;94854.41;5088167;28;20024;-85
2023/07/19 10:55:00;;;;;;;8.07;4.13;;;;;;;36.61;22.20;94855.63;5088123;28;20111;-85
2023/07/19 10:57:27;;;;;;;6.65;4.30;;;;;;;36.53;22.52;94848.59;5089022;28;20024;-86
2023/07/19 10:59:53;;;;;;;5.80;4.30;;;;;;;36.73;22.55;94867.13;5088812;28;20146;-86
2023/07/19 11:02:19;;;;;;;5.95;3.80;;;;;;;36.92;21.76;94861.25;5088262;28;20020;-86
2023/07/19 11:04:55;;;;;;;5.57;4.25;;;;;;;37.04;21.33;94867.03;5087726;28;20498;-86
2023/07/19 11:07:30;;;;;;;6.10;4.07;;;;;;;37.16;21.20;94864.19;5086519;28;20031;-86
2023/07/19 11:09:56;;;;;;;4.95;4.20;;;;;;;37.25;21.45;94856.88;5089069;28;20027;-86
2023/07/19 11:12:21;;;;;;;6.40;4.18;;;;;;;37.28;21.13;94849.91;5069786;28;20046;-86
2023/07/19 11:14:58;;;;;;;6.00;3.92;;;;;;;37.36;20.76;94844.72;5092845;28;20494;-87
2023/07/19 11:17:28;;;;;;;5.90;3.85;;;;;;;37.38;21.31;94839.13;5087548;28;20048;-86
2023/07/19 11:19:55;;;;;;;7.70;4.53;;;;;;;37.55;21.35;94852.38;5087834;28;20081;-87
2023/07/19 11:22:25;;;;;;;3.95;3.47;;;;;;;37.69;21.13;94848.28;5087989;28;20085;-87
2023/07/19 11:24:51;;;;;;;7.32;4.65;;;;;;;37.71;20.69;94834.06;5088715;28;20043;-87
2023/07/19 11:27:17;;;;;;;4.78;3.45;;;;;;;37.85;20.84;94837.09;5092077;28;20475;-87